createdAt,value
2023-01-29T00:02:12.897Z,10.15
2023-01-29T00:05:27.404Z,7.93
2023-01-29T00:08:30.857Z,7.72
2023-01-29T00:11:33.620Z,7.27
2023-01-29T00:14:36.599Z,7.20
2023-01-29T00:17:39.406Z,9.23
2023-01-29T00:20:44.005Z,7.67
2023-01-29T00:23:46.929Z,6.30
2023-01-29T00:26:50.358Z,6.45
2023-01-29T00:30:09.440Z,6.38
2023-01-29T00:33:13.464Z,7.20
2023-01-29T00:36:18.360Z,5.20
2023-01-29T00:39:31.482Z,5.28
2023-01-29T00:42:58.352Z,4.07
2023-01-29T00:46:00.848Z,3.70
2023-01-29T00:49:04.796Z,5.00
2023-01-29T00:52:25.869Z,3.60
2023-01-29T00:55:28.558Z,4.20
2023-01-29T00:58:34.196Z,4.38
2023-01-29T01:01:55.468Z,4.97
2023-01-29T01:04:58.421Z,4.28
2023-01-29T01:08:01.359Z,3.00
2023-01-29T01:11:06.384Z,2.92
2023-01-29T01:14:09.797Z,3.53
2023-01-29T01:17:12.215Z,4.43
2023-01-29T01:20:15.922Z,4.90
2023-01-29T01:23:19.700Z,3.90
2023-01-29T01:26:22.319Z,3.33
2023-01-29T01:29:25.163Z,3.65
2023-01-29T01:32:27.981Z,4.53
2023-01-29T01:35:30.821Z,3.08
2023-01-29T01:38:34.165Z,3.83
2023-01-29T01:41:36.782Z,4.28
2023-01-29T01:45:18.004Z,4.50
2023-01-29T01:48:26.524Z,2.08
2023-01-29T01:51:32.961Z,3.78
2023-01-29T01:54:35.672Z,4.20
2023-01-29T01:57:38.656Z,2.10
2023-01-29T02:00:41.923Z,3.60
2023-01-29T02:04:20.788Z,1.70
2023-01-29T02:07:42.355Z,3.47
2023-01-29T02:10:47.923Z,3.53
2023-01-29T02:13:53.650Z,4.65
2023-01-29T02:17:01.869Z,4.00
2023-01-29T02:20:21.061Z,4.05
2023-01-29T02:23:55.765Z,2.70
2023-01-29T02:27:22.148Z,4.40
2023-01-29T02:30:37.660Z,4.28
2023-01-29T02:33:53.804Z,3.38
2023-01-29T02:37:11.456Z,3.45
2023-01-29T02:40:25.350Z,4.00
2023-01-29T02:43:42.790Z,4.30
2023-01-29T02:46:45.192Z,3.35
2023-01-29T02:49:55.874Z,4.20
2023-01-29T02:53:13.066Z,4.65
2023-01-29T02:56:27.310Z,4.82
2023-01-29T02:59:38.281Z,3.93
2023-01-29T03:02:52.560Z,4.70
2023-01-29T03:06:08.796Z,4.85
2023-01-29T03:09:42.477Z,4.10
2023-01-29T03:12:51.739Z,3.75
2023-01-29T03:16:04.986Z,4.10
2023-01-29T03:19:20.575Z,3.72
2023-01-29T03:22:25.625Z,4.03
2023-01-29T03:25:47.298Z,3.85
2023-01-29T03:29:11.534Z,4.57
2023-01-29T03:32:16.114Z,4.73
2023-01-29T03:35:36.932Z,4.25
2023-01-29T03:38:41.024Z,4.15
2023-01-29T03:41:56.260Z,2.80
2023-01-29T03:45:14.234Z,4.47
2023-01-29T03:48:34.214Z,4.35
2023-01-29T03:51:50.936Z,4.80
2023-01-29T03:55:01.460Z,4.40
2023-01-29T03:58:37.118Z,3.85
2023-01-29T04:01:42.839Z,3.50
2023-01-29T04:04:50.213Z,4.53
2023-01-29T04:07:58.502Z,4.32
2023-01-29T04:11:09.533Z,4.90
2023-01-29T04:14:14.347Z,4.10
2023-01-29T04:17:22.838Z,5.28
2023-01-29T04:20:38.268Z,5.32
2023-01-29T04:23:40.978Z,5.43
2023-01-29T04:27:08.900Z,5.13
2023-01-29T04:30:17.578Z,6.28
2023-01-29T04:33:25.354Z,6.15
2023-01-29T04:37:02.660Z,6.27
2023-01-29T04:40:33.324Z,6.70
2023-01-29T04:43:47.288Z,5.85
2023-01-29T04:47:05.275Z,5.55
2023-01-29T04:50:22.372Z,6.18
2023-01-29T04:54:02.875Z,6.40
2023-01-29T04:57:25.847Z,6.03
2023-01-29T05:00:33.988Z,6.27
2023-01-29T05:03:39.260Z,6.35
2023-01-29T05:06:43.627Z,5.72
2023-01-29T05:09:47.772Z,6.70
2023-01-29T05:13:00.681Z,6.25
2023-01-29T05:16:12.069Z,7.15
2023-01-29T05:19:16.486Z,6.28
2023-01-29T05:22:22.740Z,6.28
2023-01-29T05:25:29.319Z,6.82
2023-01-29T05:28:32.134Z,6.60
2023-01-29T05:31:34.786Z,6.57
2023-01-29T05:34:37.703Z,6.32
2023-01-29T05:37:40.363Z,8.05
2023-01-29T05:40:55.152Z,7.07
2023-01-29T05:43:58.608Z,7.25
2023-01-29T05:47:02.862Z,8.10
2023-01-29T05:50:06.769Z,7.28
2023-01-29T05:53:09.949Z,7.57
2023-01-29T05:56:14.295Z,7.57
2023-01-29T05:59:17.181Z,8.02
2023-01-29T06:02:21.695Z,9.00
2023-01-29T06:05:24.070Z,7.75
2023-01-29T06:08:27.380Z,8.90
2023-01-29T06:11:30.245Z,9.30
2023-01-29T06:14:32.962Z,9.25
2023-01-29T06:17:35.810Z,8.30
2023-01-29T06:20:39.903Z,8.27
2023-01-29T06:23:42.608Z,8.93
2023-01-29T06:26:45.615Z,8.63
2023-01-29T06:29:48.117Z,7.78
2023-01-29T06:32:51.440Z,7.33
2023-01-29T06:36:01.793Z,7.88
2023-01-29T06:39:05.396Z,7.18
2023-01-29T06:42:08.648Z,7.47
2023-01-29T06:45:11.997Z,7.13
2023-01-29T06:48:14.632Z,6.63
2023-01-29T06:51:17.774Z,7.78
2023-01-29T06:54:20.616Z,6.25
2023-01-29T06:57:24.129Z,7.28
2023-01-29T07:00:26.813Z,7.43
2023-01-29T07:03:29.853Z,6.83
2023-01-29T07:06:32.754Z,9.13
2023-01-29T07:09:35.493Z,8.63
2023-01-29T07:12:38.133Z,8.53
2023-01-29T07:15:40.796Z,10.07
2023-01-29T07:18:43.795Z,11.18
2023-01-29T07:21:46.672Z,13.60
2023-01-29T07:24:49.519Z,13.48
2023-01-29T07:27:52.787Z,13.18
2023-01-29T07:30:57.989Z,11.32
2023-01-29T07:34:01.233Z,9.30
2023-01-29T07:37:03.927Z,12.18
2023-01-29T07:40:11.365Z,10.57
2023-01-29T07:43:14.635Z,11.27
2023-01-29T07:46:17.835Z,10.80
2023-01-29T07:49:20.795Z,10.32
2023-01-29T07:52:24.117Z,12.32
2023-01-29T07:55:26.839Z,14.27
2023-01-29T07:58:29.692Z,12.27
2023-01-29T08:01:32.524Z,11.23
2023-01-29T08:04:35.360Z,10.43
2023-01-29T08:07:37.744Z,14.13
2023-01-29T08:10:42.683Z,13.55
2023-01-29T08:13:46.712Z,13.93
2023-01-29T08:16:49.984Z,11.25
2023-01-29T08:19:52.959Z,10.52
2023-01-29T08:23:00.917Z,12.13
2023-01-29T08:26:03.948Z,12.65
2023-01-29T08:29:07.132Z,10.23
2023-01-29T08:32:11.293Z,10.57
2023-01-29T08:35:14.170Z,9.70
2023-01-29T08:38:17.774Z,12.32
2023-01-29T08:41:20.915Z,12.43
2023-01-29T08:44:23.592Z,13.60
2023-01-29T08:47:28.057Z,12.68
2023-01-29T08:50:32.454Z,12.52
2023-01-29T08:53:35.283Z,13.70
2023-01-29T08:56:38.152Z,12.43
2023-01-29T08:59:41.092Z,10.52
2023-01-29T09:02:44.044Z,10.35
2023-01-29T09:05:47.121Z,10.67
2023-01-29T09:08:49.940Z,12.60
2023-01-29T09:11:53.094Z,10.70
2023-01-29T09:14:55.900Z,11.07
2023-01-29T09:17:58.705Z,10.90
2023-01-29T09:21:02.746Z,10.00
2023-01-29T09:24:06.492Z,9.63
2023-01-29T09:27:10.909Z,9.63
2023-01-29T09:30:14.662Z,8.65
2023-01-29T09:33:18.491Z,10.88
2023-01-29T09:36:21.346Z,7.47
2023-01-29T09:39:23.935Z,8.45
2023-01-29T09:42:42.313Z,8.85
2023-01-29T09:45:58.739Z,9.23
2023-01-29T09:49:12.240Z,10.35
2023-01-29T09:52:22.427Z,9.90
2023-01-29T09:55:30.018Z,8.40
2023-01-29T09:58:35.976Z,8.85
2023-01-29T10:01:55.517Z,8.95
2023-01-29T10:04:58.143Z,8.73
2023-01-29T10:08:03.861Z,7.73
2023-01-29T10:11:33.175Z,6.72
2023-01-29T10:15:00.853Z,5.90
2023-01-29T10:18:45.081Z,6.77
2023-01-29T10:21:53.457Z,6.38
2023-01-29T10:25:05.752Z,6.82
2023-01-29T10:28:46.740Z,6.95
2023-01-29T10:31:57.135Z,7.13
2023-01-29T10:35:46.747Z,7.05
2023-01-29T10:38:51.547Z,26.15
2023-01-29T10:42:24.825Z,11.03
2023-01-29T10:45:46.302Z,8.32
2023-01-29T10:49:00.703Z,7.88
2023-01-29T10:52:18.240Z,7.00
2023-01-29T10:55:51.762Z,6.05
2023-01-29T10:59:22.639Z,5.50
2023-01-29T11:02:25.685Z,6.18
2023-01-29T11:05:41.328Z,6.13
2023-01-29T11:08:54.095Z,6.30
2023-01-29T11:12:05.468Z,6.75
2023-01-29T11:15:35.211Z,8.73
2023-01-29T11:18:53.647Z,8.00
2023-01-29T11:21:59.480Z,7.68
2023-01-29T11:25:16.609Z,6.43
2023-01-29T11:28:39.336Z,6.28
2023-01-29T11:31:42.573Z,6.57
2023-01-29T11:35:18.600Z,6.50
2023-01-29T11:38:29.557Z,5.50
2023-01-29T11:41:43.909Z,6.07
2023-01-29T11:44:46.656Z,5.63
2023-01-29T11:47:53.313Z,6.33
2023-01-29T11:51:00.578Z,7.30
2023-01-29T11:54:05.454Z,6.57
2023-01-29T11:57:24.326Z,5.67
2023-01-29T12:00:29.984Z,6.72
2023-01-29T12:03:37.462Z,6.47
2023-01-29T12:06:44.746Z,5.63
2023-01-29T12:09:56.466Z,5.22
2023-01-29T12:13:26.726Z,5.20
2023-01-29T12:16:57.143Z,4.97
2023-01-29T12:20:11.687Z,5.27
2023-01-29T12:23:23.359Z,6.40
2023-01-29T12:26:33.090Z,7.05
2023-01-29T12:30:10.947Z,6.23
2023-01-29T12:33:37.611Z,6.80
2023-01-29T12:36:53.212Z,7.38
2023-01-29T12:39:56.518Z,9.73
2023-01-29T12:43:06.903Z,9.93
2023-01-29T12:46:34.538Z,14.45
2023-01-29T12:49:40.040Z,13.00
2023-01-29T12:52:58.044Z,13.43
2023-01-29T12:56:09.824Z,13.40
2023-01-29T12:59:25.009Z,14.05
2023-01-29T13:02:54.463Z,9.40
2023-01-29T13:06:02.639Z,9.85
2023-01-29T13:09:09.823Z,8.80
2023-01-29T13:12:16.898Z,9.50
2023-01-29T13:15:26.285Z,12.38
2023-01-29T13:19:03.323Z,10.70
2023-01-29T13:22:17.434Z,9.18
2023-01-29T13:25:21.101Z,7.93
2023-01-29T13:28:26.778Z,8.23
2023-01-29T13:31:34.394Z,16.10
2023-01-29T13:34:49.404Z,9.50
2023-01-29T13:37:55.078Z,7.70
2023-01-29T13:41:03.145Z,7.82
2023-01-29T13:44:09.915Z,8.35
2023-01-29T13:47:23.874Z,8.43
2023-01-29T13:50:37.539Z,8.30
2023-01-29T13:53:41.898Z,11.38
2023-01-29T13:56:59.403Z,9.87
2023-01-29T14:00:02.109Z,7.90
2023-01-29T14:03:12.100Z,7.32
2023-01-29T14:06:36.743Z,7.17
2023-01-29T14:09:39.658Z,5.47
2023-01-29T14:12:43.377Z,4.25
2023-01-29T14:16:06.930Z,4.85
2023-01-29T14:19:19.056Z,5.20
2023-01-29T14:22:28.214Z,7.03
2023-01-29T14:25:33.604Z,6.32
2023-01-29T14:28:37.042Z,7.20
2023-01-29T14:31:43.172Z,7.32
2023-01-29T14:34:50.231Z,6.57
2023-01-29T14:37:56.422Z,7.10
2023-01-29T14:41:14.252Z,6.38
2023-01-29T14:44:45.118Z,6.97
2023-01-29T14:47:47.890Z,6.97
2023-01-29T14:50:54.180Z,6.53
2023-01-29T14:54:19.425Z,5.97
2023-01-29T14:57:23.738Z,5.88
2023-01-29T15:00:39.260Z,6.57
2023-01-29T15:03:46.566Z,7.13
2023-01-29T15:07:16.073Z,8.90
2023-01-29T15:10:25.152Z,8.13
2023-01-29T15:13:37.617Z,7.60
2023-01-29T15:16:52.744Z,8.35
2023-01-29T15:19:56.957Z,9.40
2023-01-29T15:23:03.324Z,8.80
2023-01-29T15:26:08.961Z,8.05
2023-01-29T15:29:26.041Z,7.85
2023-01-29T15:32:34.571Z,8.87
2023-01-29T15:35:42.241Z,9.88
2023-01-29T15:38:45.046Z,9.95
2023-01-29T15:41:48.770Z,10.37
2023-01-29T15:44:54.667Z,10.32
2023-01-29T15:48:08.158Z,9.93
2023-01-29T15:51:16.597Z,12.65
2023-01-29T15:54:19.524Z,14.25
2023-01-29T15:57:26.328Z,13.55
2023-01-29T16:00:30.629Z,13.98
2023-01-29T16:03:34.947Z,15.37
2023-01-29T16:06:40.944Z,14.00
2023-01-29T16:09:44.018Z,12.85
2023-01-29T16:12:51.424Z,11.50
2023-01-29T16:16:01.981Z,12.57
2023-01-29T16:19:20.864Z,9.98
2023-01-29T16:22:25.095Z,10.02
2023-01-29T16:25:30.553Z,10.02
2023-01-29T16:28:39.644Z,11.38
2023-01-29T16:31:44.606Z,13.23
2023-01-29T16:34:49.321Z,10.47
2023-01-29T16:37:56.938Z,9.18
2023-01-29T16:41:08.578Z,10.88
2023-01-29T16:44:17.266Z,11.10
2023-01-29T16:47:33.210Z,8.02
2023-01-29T16:50:46.202Z,7.68
2023-01-29T16:54:02.343Z,7.22
2023-01-29T16:57:05.277Z,5.95
2023-01-29T17:00:20.517Z,7.13
2023-01-29T17:03:26.788Z,6.63
2023-01-29T17:06:31.652Z,7.10
2023-01-29T17:09:37.250Z,8.60
2023-01-29T17:12:40.613Z,7.47
2023-01-29T17:15:46.048Z,8.33
2023-01-29T17:18:49.642Z,9.73
2023-01-29T17:21:52.656Z,11.25
2023-01-29T17:24:55.753Z,11.35
2023-01-29T17:28:01.523Z,7.57
2023-01-29T17:31:07.179Z,7.65
2023-01-29T17:34:14.903Z,8.75
2023-01-29T17:37:18.046Z,8.80
2023-01-29T17:40:36.303Z,9.13
2023-01-29T17:43:39.324Z,9.07
2023-01-29T17:46:42.956Z,11.87
2023-01-29T17:49:46.588Z,13.13
2023-01-29T17:52:50.095Z,13.05
2023-01-29T17:55:52.962Z,12.50
2023-01-29T17:58:56.364Z,13.57
2023-01-29T18:02:00.041Z,15.68
2023-01-29T18:05:02.935Z,15.70
2023-01-29T18:08:06.195Z,17.47
2023-01-29T18:11:12.785Z,14.77
2023-01-29T18:14:15.994Z,14.85
2023-01-29T18:17:22.391Z,14.07
2023-01-29T18:20:28.186Z,14.48
2023-01-29T18:23:32.492Z,14.32
2023-01-29T18:26:36.210Z,15.10
2023-01-29T18:29:39.172Z,14.73
2023-01-29T18:32:42.142Z,19.75
2023-01-29T18:35:45.564Z,18.05
2023-01-29T18:38:48.653Z,20.57
2023-01-29T18:41:51.161Z,34.85
2023-01-29T18:44:54.318Z,33.95
2023-01-29T18:47:57.739Z,27.37
2023-01-29T18:51:01.245Z,30.08
2023-01-29T18:54:04.191Z,41.53
2023-01-29T18:57:14.180Z,55.08
2023-01-29T19:00:18.054Z,47.33
2023-01-29T19:03:21.024Z,28.83
2023-01-29T19:06:24.110Z,28.60
2023-01-29T19:09:27.143Z,17.70
2023-01-29T19:12:29.888Z,12.27
2023-01-29T19:15:33.764Z,14.85
2023-01-29T19:18:38.766Z,15.23
2023-01-29T19:21:41.894Z,13.25
2023-01-29T19:24:44.774Z,14.07
2023-01-29T19:27:47.831Z,14.50
2023-01-29T19:30:50.730Z,16.23
2023-01-29T19:33:54.210Z,13.02
2023-01-29T19:36:56.913Z,14.30
2023-01-29T19:40:00.735Z,14.23
2023-01-29T19:43:03.404Z,21.73
2023-01-29T19:46:06.290Z,18.77
2023-01-29T19:49:10.662Z,14.00
2023-01-29T19:52:49.856Z,15.35
2023-01-29T19:56:01.639Z,17.67
2023-01-29T19:59:05.273Z,19.00
2023-01-29T20:02:09.037Z,17.73
2023-01-29T20:05:13.274Z,18.65
2023-01-29T20:08:16.322Z,16.30
2023-01-29T20:11:21.696Z,15.87
2023-01-29T20:14:24.502Z,23.25
2023-01-29T20:17:28.169Z,15.20
2023-01-29T20:20:32.901Z,16.73
2023-01-29T20:23:38.583Z,16.45
2023-01-29T20:26:41.507Z,18.67
2023-01-29T20:29:45.585Z,29.67
2023-01-29T20:32:48.337Z,27.38
2023-01-29T20:35:59.507Z,21.63
2023-01-29T20:39:02.280Z,15.70
2023-01-29T20:42:05.445Z,14.53
2023-01-29T20:45:08.147Z,14.05
2023-01-29T20:48:10.763Z,15.82
2023-01-29T20:51:16.140Z,16.10
2023-01-29T20:54:18.956Z,13.38
2023-01-29T20:57:21.754Z,16.45
2023-01-29T21:00:24.714Z,17.67
2023-01-29T21:03:27.848Z,17.05
2023-01-29T21:06:31.106Z,21.75
2023-01-29T21:09:33.582Z,19.92
2023-01-29T21:12:36.298Z,18.23
2023-01-29T21:15:38.867Z,20.20
2023-01-29T21:18:41.961Z,21.45
2023-01-29T21:21:44.825Z,22.50
2023-01-29T21:24:47.653Z,21.02
2023-01-29T21:27:51.075Z,24.48
2023-01-29T21:31:10.249Z,24.90
2023-01-29T21:34:12.728Z,26.85
2023-01-29T21:37:15.526Z,28.25
2023-01-29T21:40:18.546Z,28.88
2023-01-29T21:43:21.449Z,28.77
2023-01-29T21:46:23.940Z,29.95
2023-01-29T21:49:27.400Z,26.88
2023-01-29T21:52:30.303Z,25.03
2023-01-29T21:55:33.241Z,22.38
2023-01-29T21:58:36.337Z,19.92
2023-01-29T22:01:39.310Z,18.27
2023-01-29T22:04:42.390Z,19.00
2023-01-29T22:07:45.235Z,23.30
2023-01-29T22:10:48.019Z,24.83
2023-01-29T22:13:50.937Z,31.63
2023-01-29T22:16:53.399Z,29.48
2023-01-29T22:19:56.422Z,30.30
2023-01-29T22:23:00.424Z,29.17
2023-01-29T22:26:04.634Z,30.52
2023-01-29T22:29:07.339Z,29.92
2023-01-29T22:32:11.090Z,28.38
2023-01-29T22:35:13.861Z,26.50
2023-01-29T22:38:16.705Z,31.77
2023-01-29T22:41:19.184Z,32.55
2023-01-29T22:44:22.266Z,28.23
2023-01-29T22:47:24.664Z,27.63
2023-01-29T22:50:27.673Z,23.45
2023-01-29T22:53:30.497Z,24.40
2023-01-29T22:56:33.230Z,25.15
2023-01-29T22:59:36.213Z,25.67
2023-01-29T23:02:39.316Z,26.17
2023-01-29T23:05:41.890Z,26.98
2023-01-29T23:08:45.448Z,26.38
2023-01-29T23:11:48.017Z,25.83
2023-01-29T23:14:51.104Z,25.77
2023-01-29T23:17:53.581Z,25.58
2023-01-29T23:20:57.890Z,25.35
2023-01-29T23:24:01.354Z,25.93
2023-01-29T23:27:16.529Z,25.33
2023-01-29T23:30:19.635Z,24.33
2023-01-29T23:33:22.761Z,24.42
2023-01-29T23:36:25.544Z,27.25
2023-01-29T23:39:28.257Z,26.80
2023-01-29T23:42:30.840Z,23.38
2023-01-29T23:45:33.920Z,24.83
2023-01-29T23:48:36.502Z,25.15
2023-01-29T23:51:39.689Z,23.20
2023-01-29T23:54:42.651Z,21.87
2023-01-29T23:57:45.243Z,23.70
